ADDS METAR Data INFO
IDs: Format: Raw Decoded Include TAF

Data at: 2040 UTC 20 Jul 2018

KBXA 202035Z AUTO 26006KT 10SM CLR 36/24 A2995 RMK AO2 T03570236
KBXA 202015Z AUTO 30006KT 10SM SCT042 35/22 A2995 RMK AO2 T03540224
KBXA 201955Z AUTO 28003KT 10SM CLR 36/22 A2994 RMK AO2 T03550222
KBXA 201935Z AUTO 30005KT 10SM CLR 35/24 A2994 RMK AO2 T03480239
KBXA 201915Z AUTO 25007KT 10SM CLR 35/23 A2995 RMK AO2 T03490234
KBXA 201855Z AUTO 27003KT 10SM CLR 35/24 A2996 RMK AO2 T03460235
KBXA 201835Z AUTO 29004KT 10SM SCT085 34/23 A2997 RMK AO2 T03440231
KBXA 201815Z AUTO 30003KT 10SM SCT085 34/23 A2997 RMK AO2 T03410232
KBXA 201755Z AUTO 28004KT 10SM SCT085 34/24 A2997 RMK AO2 LTG DSNT SE T03410236 10341 20245
KBXA 201735Z AUTO 28004KT 10SM SCT085 33/24 A2998 RMK AO2 T03310239
KBXA 201720Z AUTO 30006KT 10SM SCT085 33/24 A2998 RMK AO2 LTG DSNT SE T03320240
KBXA 201655Z AUTO 00000KT 10SM SCT024 33/25 A2998 RMK AO2 T03270247
KBXA 201635Z AUTO 31004KT 10SM SCT024 32/24 A2999 RMK AO2 T03240244
KBXA 201615Z AUTO 00000KT 10SM SCT021 SCT080 32/24 A2999 RMK AO2 T03200244
KBXA 201555Z AUTO 27007KT 10SM SCT019 BKN080 32/25 A2999 RMK AO2 LTG DSNT SE T03160246
KBXA 201535Z AUTO 30003KT 10SM SCT080 31/25 A2999 RMK AO2 T03110248
KBXA 201515Z AUTO 30005KT 10SM SCT080 31/25 A2999 RMK AO2 LTG DSNT SE T03080250
KBXA 201455Z AUTO 33006KT 10SM SCT080 30/25 A2999 RMK AO2 T03010246
KBXA 201435Z AUTO 27004KT 10SM BKN080 BKN120 29/25 A2999 RMK AO2 LTG DSNT SE T02900248
KBXA 201415Z AUTO 00000KT 10SM SCT090 SCT120 28/25 A3000 RMK AO2 T02800246
KBXA 201355Z AUTO 00000KT 10SM CLR 28/25 A2999 RMK AO2 T02770245
KBXA 201335Z AUTO 00000KT 10SM CLR 27/24 A2999 RMK AO2 T02730243
KBXA 201315Z AUTO 00000KT 7SM CLR 27/24 A2998 RMK AO2 LTG DSNT SE T02650242
KBXA 201255Z AUTO 00000KT 5SM BR CLR 26/24 A2998 RMK AO2 LTG DSNT SE T02560237
KBXA 201235Z AUTO 00000KT 5SM BR CLR 25/23 A2997 RMK AO2 T02500231
KBXA 201215Z AUTO 00000KT 5SM BR CLR 25/23 A2996 RMK AO2 LTG DSNT SE T02450227
KBXA 201155Z AUTO 00000KT 5SM BR CLR 25/23 A2995 RMK AO2 60001 70001 T02450227 10249 20242
KBXA 201135Z AUTO 00000KT 4SM BR CLR 24/23 A2994 RMK AO2 LTG DSNT SE T02430225
KBXA 201115Z AUTO 00000KT 7SM CLR 25/23 A2994 RMK AO2 T02450226
KBXA 201055Z AUTO 00000KT 7SM CLR 25/23 A2993 RMK AO2 T02450226
KBXA 201035Z AUTO 00000KT 10SM CLR 25/23 A2992 RMK AO2 T02450226
KBXA 201015Z AUTO 00000KT 7SM CLR 25/23 A2991 RMK AO2 T02460227
KBXA 200955Z AUTO 21003KT 10SM CLR 25/23 A2990 RMK AO2 T02450226
KBXA 200935Z AUTO 00000KT 10SM CLR 24/23 A2991 RMK AO2 T02440226
KBXA 200915Z AUTO 24003KT 10SM CLR 24/23 A2990 RMK AO2 T02440226
KBXA 200855Z AUTO 00000KT 10SM CLR 25/23 A2991 RMK AO2 LTG DSNT SE 60001 T02450226
KBXA 200835Z AUTO 00000KT 7SM CLR 24/23 A2991 RMK AO2 T02430225
KBXA 200815Z AUTO 00000KT 10SM CLR 25/23 A2992 RMK AO2 T02450226
KBXA 200755Z AUTO 00000KT 10SM CLR 25/23 A2991 RMK AO2 LTG DSNT SE P0001 T02450227
KBXA 200735Z AUTO 00000KT 7SM CLR 25/23 A2991 RMK AO2 P0001 T02450226
KBXA 200715Z AUTO 00000KT 7SM CLR 25/23 A2992 RMK AO2 T02450226
KBXA 200655Z AUTO 00000KT 7SM CLR 25/23 A2993 RMK AO2 T02450226
KBXA 200635Z AUTO 00000KT 7SM CLR 25/23 A2993 RMK AO2 T02470228
KBXA 200615Z AUTO 00000KT 7SM CLR 25/23 A2993 RMK AO2 T02470228
KBXA 200555Z AUTO 00000KT 7SM CLR 25/23 A2993 RMK AO2 T02500230 10265 20250 403550235
KBXA 200535Z AUTO 00000KT 7SM CLR 25/23 A2993 RMK AO2 T02510232
KBXA 200515Z AUTO 00000KT 10SM CLR 25/23 A2994 RMK AO2 T02500231
KBXA 200455Z AUTO 00000KT 10SM CLR 25/23 A2994 RMK AO2 T02520233
KBXA 200435Z AUTO 00000KT 10SM CLR 25/23 A2994 RMK AO2 T02500231
KBXA 200415Z AUTO 00000KT 10SM CLR 25/23 A2994 RMK AO2 T02500231
KBXA 200355Z AUTO 00000KT 7SM CLR 25/23 A2994 RMK AO2 T02500230
KBXA 200335Z AUTO 00000KT 10SM CLR 25/23 A2994 RMK AO2 T02510231
KBXA 200315Z AUTO 00000KT 10SM CLR 25/23 A2993 RMK AO2 T02540232
KBXA 200300Z AUTO 00000KT 10SM CLR 25/23 A2994 RMK AO2 T02530231
KBXA 200235Z AUTO 00000KT 10SM CLR 26/23 A2993 RMK AO2 T02550231
KBXA 200215Z AUTO 00000KT 10SM SCT034 SCT040 SCT060 26/23 A2993 RMK AO2 T02580232
KBXA 200155Z AUTO 00000KT 10SM SCT034 BKN060 26/23 A2993 RMK AO2 T02560230
KBXA 200135Z AUTO 00000KT 10SM BKN060 26/23 A2993 RMK AO2 LTG DSNT SE T02560230
KBXA 200115Z AUTO 00000KT 10SM BKN060 26/23 A2993 RMK AO2 T02560230
KBXA 200055Z AUTO 24005KT 10SM SCT060 26/23 A2992 RMK AO2 LTG DSNT E SW AND W T02590232
KBXA 200035Z AUTO 00000KT 10SM SCT035 SCT041 SCT050 26/24 A2991 RMK AO2 LTG DSNT SE AND SW T02630235
KBXA 200015Z AUTO 20005KT 2SM VCTSRA SCT014 BKN031 OVC050 26/23 A2990 RMK AO2 LTG DSNT SW AND W T02600232
KBXA 192355Z AUTO 11004KT 10SM VCTS BKN048 BKN065 27/23 A2992 RMK AO2 LTG DSNT ALQS T02650228 10355 20262
KBXA 192335Z AUTO 15007KT 10SM -VCTSRA BKN050 OVC065 27/23 A2992 RMK AO2 LTG DSNT E THRU SW T02650226
KBXA 192315Z AUTO 23005KT 10SM -TSRA BKN055 BKN070 BKN090 27/23 A2990 RMK AO2 LTG DSNT E THRU SW T02670230
KBXA 192255Z AUTO 27007G11KT 5SM TSRA SCT016 SCT031 BKN041 27/21 A2990 RMK AO2 LTG DSNT ALQS T02720209
KBXA 192235Z AUTO 10011G21KT 4SM TSRA SCT028 BKN040 OVC060 29/24 A2991 RMK AO2 LTG DSNT ALQS T02850238
KBXA 192215Z AUTO 14008KT 2SM -VCTSRA SCT030 BKN044 OVC060 33/25 A2988 RMK AO2 VIS 1/2V5 LTG DSNT NE THRU S T03260245
KBXA 192155Z AUTO 34003KT 10SM BKN047 BKN055 BKN065 34/23 A2989 RMK AO2 LTG DSNT E THRU S T03440230
KBXA 192135Z AUTO 33003KT 10SM VCTS SCT047 BKN065 BKN080 34/23 A2989 RMK AO2 LTG DSNT SE AND S T03430230
KBXA 192115Z AUTO 33004KT 10SM BKN047 BKN050 35/23 A2989 RMK AO2 LTG DSNT SE AND S T03470234
KBXA 192055Z AUTO 01003KT 10SM VCTS BKN045 BKN055 35/23 A2989 RMK AO2 LTG DSNT SE AND S T03500232
KBXA 192035Z AUTO 00000KT 10SM OVC045 36/23 A2989 RMK AO2 LTG DSNT SE T03550233
KBXA 192015Z AUTO 35006KT 10SM BKN045 BKN060 BKN075 35/23 A2990 RMK AO2 LTG DSNT SE T03450226
KBXA 191955Z AUTO 00000KT 10SM SCT040 BKN060 BKN075 35/23 A2990 RMK AO2 LTG DSNT SE T03450232
KBXA 191935Z AUTO 00000KT 10SM BKN038 BKN070 BKN120 34/23 A2991 RMK AO2 T03360232
KBXA 191915Z AUTO 33005KT 10SM BKN038 BKN044 BKN050 34/24 A2992 RMK AO2 LTG DSNT SE T03350237
KBXA 191855Z AUTO 00000KT 10SM SCT038 BKN050 34/23 A2992 RMK AO2 LTG DSNT SE T03400233
KBXA 191835Z AUTO 28004KT 10SM SCT031 BKN038 BKN045 34/24 A2993 RMK AO2 LTG DSNT SE T03380238
KBXA 191815Z AUTO 32004KT 10SM SCT031 BKN043 34/24 A2994 RMK AO2 LTG DSNT SE T03360240
KBXA 191755Z AUTO 32008KT 10SM SCT029 BKN039 BKN046 33/25 A2994 RMK AO2 T03310245 10334 20238
KBXA 191735Z AUTO 31003KT 10SM SCT029 SCT034 33/24 A2994 RMK AO2 LTG DSNT SE T03330243
KBXA 191715Z AUTO 32008KT 10SM BKN029 BKN034 BKN044 33/25 A2995 RMK AO2 T03280249
KBXA 191655Z AUTO 33006KT 10SM SCT029 SCT036 SCT044 33/25 A2995 RMK AO2 T03270245
KBXA 191635Z AUTO 34005KT 10SM SCT019 SCT023 SCT031 32/25 A2996 RMK AO2 T03210252
KBXA 191615Z AUTO 34005KT 10SM SCT017 31/25 A2996 RMK AO2 T03100254
KBXA 191555Z AUTO 30004KT 10SM SCT013 30/25 A2996 RMK AO2 T03010250
KBXA 191535Z AUTO 34005KT 10SM SCT011 30/25 A2996 RMK AO2 T03000250
KBXA 191515Z AUTO 30008KT 270V330 10SM SCT011 30/25 A2996 RMK AO2 LTG DSNT SE T03000250
KBXA 191455Z AUTO 32005KT 10SM SCT009 SCT013 SCT120 29/25 A2996 RMK AO2 LTG DSNT SE T02900248
KBXA 191435Z AUTO 33005KT 10SM SCT007 BKN120 29/25 A2997 RMK AO2 T02860248
KBXA 191415Z AUTO 00000KT 10SM BKN003 BKN009 27/24 A2997 RMK AO2 T02670242
KBXA 191355Z AUTO 00000KT 7SM OVC003 26/24 A2997 RMK AO2 T02580236
KBXA 191335Z AUTO 00000KT 10SM SCT003 SCT120 25/23 A2997 RMK AO2 T02520233
KBXA 191315Z AUTO 00000KT 10SM SCT120 25/23 A2997 RMK AO2 T02470229
KBXA 191255Z AUTO 00000KT 10SM SCT120 25/23 A2998 RMK AO2 T02450226
KBXA 191235Z AUTO 00000KT 10SM CLR 24/23 A2997 RMK AO2 T02420225
KBXA 191215Z AUTO 00000KT 10SM SCT120 24/22 A2997 RMK AO2 LTG DSNT SE T02380221
KBXA 191155Z AUTO 00000KT 10SM BKN120 24/22 A2997 RMK AO2 60001 70001 T02370220 10242 20235
KBXA 191135Z AUTO 00000KT 10SM OVC120 24/22 A2997 RMK AO2 T02370220
KBXA 191115Z AUTO 00000KT 7SM BKN120 24/22 A2996 RMK AO2 T02360220
KBXA 191055Z AUTO 00000KT 7SM SCT033 SCT047 24/22 A2996 RMK AO2 LTG DSNT SE P0001 T02350219
KBXA 191035Z AUTO 00000KT 7SM SCT033 BKN047 BKN120 24/22 A2996 RMK AO2 LTG DSNT SE T02350218
KBXA 191015Z AUTO 00000KT 7SM SCT045 SCT120 24/22 A2995 RMK AO2 T02350218
KBXA 190955Z AUTO 00000KT 10SM CLR 24/22 A2994 RMK AO2 T02360220
KBXA 190935Z AUTO 00000KT 10SM CLR 24/22 A2994 RMK AO2 T02370220
KBXA 190915Z AUTO 00000KT 10SM CLR 24/22 A2994 RMK AO2 T02350218
KBXA 190855Z AUTO 00000KT 7SM CLR 24/22 A2993 RMK AO2 T02350218